DLH415 KIAD-EDDM
Flight info
| Callsign | DLH415 |
|---|---|
| Flight time | N/A |
| Altitude | 35000 |
| Route | JCOBY4 SWANN DCT BROSS Q419 RBV Q22 FOXWD DCT WITCH DCT ALLEX N565B TUDEP/M080F350 DCT 52N050W 53N040W 54N030W 54N020W DCT MALOT DCT GISTI/N0451F350 DCT LUNIG DCT ENJEX DCT ADHAV DCT AGCAT DCT AXNEF DCT ZIPWE DCT OZZIL DCT SAWPE Q63 CPT UL9 BIG L607 KONAN UL607 SPI DCT MOVUM T109 HAREM T104 ROKIL ROKIL1B |
| Aircraft | A388/J-SADE2E3FGHIJ3J4J5M1RWXY/LB1D1 |
Departure
| Time | 2026-05-06 21:08 |
|---|---|
| Airport | Washington Dulles International Airport (KIAD) |
Arrival
| Time | N/A |
|---|---|
| Airport | Munich Airport (EDDM) |
| Time | Latitude | Longitude | Altitude | Speed | Heading |
|---|---|---|---|---|---|
| 2026-05-06 20:37 | 38.94593 | -77.44868 | 305 ft | 0 kts | 166° |
| 2026-05-06 20:50 | 38.94606 | -77.44872 | 308 ft | 4 kts | 168° |
| 2026-05-06 20:50 | 38.94633 | -77.44879 | 306 ft | 4 kts | 170° |
| 2026-05-06 20:50 | 38.94657 | -77.44883 | 306 ft | 4 kts | 192° |
| 2026-05-06 20:51 | 38.94670 | -77.44873 | 306 ft | 4 kts | 283° |
| 2026-05-06 20:51 | 38.94661 | -77.44841 | 304 ft | 4 kts | 286° |
| 2026-05-06 20:51 | 38.94658 | -77.44824 | 304 ft | 2 kts | 270° |
| 2026-05-06 20:55 | 38.94658 | -77.44828 | 305 ft | 1 kts | 270° |
| 2026-05-06 20:56 | 38.94658 | -77.44857 | 305 ft | 5 kts | 270° |
| 2026-05-06 20:56 | 38.94659 | -77.44914 | 305 ft | 8 kts | 270° |
| 2026-05-06 20:56 | 38.94660 | -77.44988 | 305 ft | 9 kts | 270° |
| 2026-05-06 20:56 | 38.94661 | -77.45072 | 305 ft | 10 kts | 270° |
| 2026-05-06 20:57 | 38.94662 | -77.45166 | 305 ft | 11 kts | 270° |
| 2026-05-06 20:57 | 38.94663 | -77.45271 | 307 ft | 12 kts | 270° |
| 2026-05-06 20:57 | 38.94664 | -77.45384 | 305 ft | 13 kts | 270° |
| 2026-05-06 20:57 | 38.94665 | -77.45504 | 305 ft | 13 kts | 270° |
| 2026-05-06 20:58 | 38.94665 | -77.45537 | 305 ft | 1 kts | 273° |
| 2026-05-06 20:58 | 38.94669 | -77.45558 | 309 ft | 5 kts | 298° |
| 2026-05-06 20:58 | 38.94698 | -77.45594 | 309 ft | 7 kts | 328° |
| 2026-05-06 20:58 | 38.94749 | -77.45611 | 307 ft | 8 kts | 360° |
| 2026-05-06 20:59 | 38.94822 | -77.45610 | 306 ft | 13 kts | 1° |
| 2026-05-06 20:59 | 38.94927 | -77.45606 | 307 ft | 18 kts | 2° |
| 2026-05-06 20:59 | 38.95063 | -77.45597 | 306 ft | 22 kts | 4° |
| 2026-05-06 20:59 | 38.95186 | -77.45594 | 308 ft | 15 kts | 359° |
| 2026-05-06 21:00 | 38.95307 | -77.45598 | 309 ft | 20 kts | 358° |
| 2026-05-06 21:00 | 38.95436 | -77.45598 | 307 ft | 16 kts | 0° |
| 2026-05-06 21:00 | 38.95561 | -77.45598 | 308 ft | 19 kts | 0° |
| 2026-05-06 21:00 | 38.95684 | -77.45596 | 307 ft | 20 kts | 1° |
| 2026-05-06 21:01 | 38.95763 | -77.45594 | 308 ft | 0 kts | 1° |
| 2026-05-06 21:01 | 38.95764 | -77.45594 | 308 ft | 0 kts | 1° |
| 2026-05-06 21:01 | 38.95775 | -77.45593 | 314 ft | 4 kts | 1° |
| 2026-05-06 21:02 | 38.95817 | -77.45592 | 307 ft | 8 kts | 1° |
| 2026-05-06 21:02 | 38.95852 | -77.45591 | 309 ft | 0 kts | 1° |
| 2026-05-06 21:02 | 38.95872 | -77.45591 | 308 ft | 5 kts | 0° |
| 2026-05-06 21:02 | 38.95924 | -77.45591 | 309 ft | 10 kts | 359° |
| 2026-05-06 21:03 | 38.96008 | -77.45593 | 307 ft | 14 kts | 358° |
| 2026-05-06 21:03 | 38.96114 | -77.45597 | 308 ft | 17 kts | 359° |
| 2026-05-06 21:03 | 38.96247 | -77.45598 | 306 ft | 21 kts | 360° |
| 2026-05-06 21:03 | 38.96402 | -77.45585 | 306 ft | 24 kts | 5° |
| 2026-05-06 21:04 | 38.96579 | -77.45578 | 307 ft | 27 kts | 1° |
| 2026-05-06 21:04 | 38.96708 | -77.45576 | 307 ft | 16 kts | 0° |
| 2026-05-06 21:04 | 38.96832 | -77.45575 | 306 ft | 20 kts | 0° |
| 2026-05-06 21:04 | 38.96928 | -77.45574 | 308 ft | 12 kts | 0° |
| 2026-05-06 21:05 | 38.97011 | -77.45605 | 308 ft | 13 kts | 311° |
| 2026-05-06 21:05 | 38.97029 | -77.45706 | 309 ft | 5 kts | 266° |
| 2026-05-06 21:05 | 38.97025 | -77.45759 | 306 ft | 5 kts | 265° |
| 2026-05-06 21:05 | 38.97025 | -77.45760 | 306 ft | 0 kts | 265° |
| 2026-05-06 21:06 | 38.97024 | -77.45779 | 307 ft | 3 kts | 265° |
| 2026-05-06 21:06 | 38.97021 | -77.45817 | 309 ft | 5 kts | 265° |
| 2026-05-06 21:06 | 38.97018 | -77.45867 | 311 ft | 6 kts | 261° |
| 2026-05-06 21:07 | 38.97005 | -77.45907 | 310 ft | 4 kts | 224° |
| 2026-05-06 21:07 | 38.96962 | -77.45935 | 309 ft | 13 kts | 195° |
| 2026-05-06 21:07 | 38.96695 | -77.45941 | 307 ft | 81 kts | 182° |
| 2026-05-06 21:07 | 38.95857 | -77.45953 | 308 ft | 153 kts | 180° |
| 2026-05-06 21:08 | 38.94701 | -77.45940 | 663 ft | 170 kts | 181° |
| 2026-05-06 21:08 | 38.93514 | -77.45971 | 1298 ft | 171 kts | 192° |
| 2026-05-06 21:08 | 38.92387 | -77.46484 | 1791 ft | 178 kts | 216° |
| 2026-05-06 21:08 | 38.91383 | -77.47479 | 2142 ft | 189 kts | 220° |
| 2026-05-06 21:09 | 38.90303 | -77.48552 | 2295 ft | 203 kts | 220° |
| 2026-05-06 21:09 | 38.89394 | -77.50003 | 2540 ft | 224 kts | 247° |
| 2026-05-06 21:09 | 38.89209 | -77.52062 | 2960 ft | 246 kts | 276° |
| 2026-05-06 21:09 | 38.89928 | -77.54081 | 3845 ft | 254 kts | 307° |
| 2026-05-06 21:10 | 38.91356 | -77.55435 | 4895 ft | 263 kts | 332° |
| 2026-05-06 21:10 | 38.93132 | -77.56096 | 5780 ft | 269 kts | 339° |
| 2026-05-06 21:10 | 38.94977 | -77.56668 | 6544 ft | 278 kts | 345° |
| 2026-05-06 21:10 | 38.96948 | -77.56484 | 7339 ft | 295 kts | 11° |
| 2026-05-06 21:11 | 38.98800 | -77.55214 | 8003 ft | 313 kts | 36° |
| 2026-05-06 21:11 | 39.00187 | -77.53036 | 8840 ft | 319 kts | 56° |
| 2026-05-06 21:11 | 39.01343 | -77.50548 | 9462 ft | 330 kts | 56° |
| 2026-05-06 21:11 | 39.02687 | -77.48046 | 9715 ft | 350 kts | 49° |
| 2026-05-06 21:12 | 39.04276 | -77.45628 | 10189 ft | 357 kts | 44° |
| 2026-05-06 21:12 | 39.05991 | -77.43304 | 10943 ft | 359 kts | 41° |
| 2026-05-06 21:12 | 39.07782 | -77.40995 | 11374 ft | 374 kts | 40° |
| 2026-05-06 21:12 | 39.09663 | -77.38612 | 11862 ft | 382 kts | 40° |
| 2026-05-06 21:13 | 39.11569 | -77.36196 | 12475 ft | 387 kts | 40° |
| 2026-05-06 21:13 | 39.13497 | -77.33715 | 12967 ft | 397 kts | 43° |
| 2026-05-06 21:13 | 39.15027 | -77.30704 | 13637 ft | 408 kts | 63° |
| 2026-05-06 21:13 | 39.15754 | -77.27584 | 14117 ft | 415 kts | 81° |
| 2026-05-06 21:14 | 39.15790 | -77.23984 | 14615 ft | 418 kts | 100° |
| 2026-05-06 21:14 | 39.15052 | -77.20364 | 15203 ft | 416 kts | 112° |
| 2026-05-06 21:14 | 39.14069 | -77.16844 | 15745 ft | 421 kts | 112° |
| 2026-05-06 21:14 | 39.13178 | -77.13231 | 16301 ft | 426 kts | 108° |
| 2026-05-06 21:15 | 39.12431 | -77.09505 | 16810 ft | 432 kts | 105° |
| 2026-05-06 21:15 | 39.11773 | -77.05711 | 17336 ft | 436 kts | 104° |
| 2026-05-06 21:15 | 39.11158 | -77.01915 | 17842 ft | 442 kts | 103° |
| 2026-05-06 21:15 | 39.10746 | -76.97925 | 18403 ft | 447 kts | 93° |
| 2026-05-06 21:16 | 39.10798 | -76.93902 | 18830 ft | 453 kts | 87° |
| 2026-05-06 21:16 | 39.10926 | -76.89911 | 18861 ft | 455 kts | 87° |
| 2026-05-06 21:16 | 39.11040 | -76.85852 | 18862 ft | 453 kts | 88° |
| 2026-05-06 21:16 | 39.11144 | -76.81828 | 18880 ft | 448 kts | 88° |
| 2026-05-06 21:17 | 39.11243 | -76.77805 | 18917 ft | 450 kts | 88° |
| 2026-05-06 21:17 | 39.11340 | -76.73772 | 19175 ft | 453 kts | 88° |
| 2026-05-06 21:17 | 39.11437 | -76.69700 | 19607 ft | 457 kts | 88° |
| 2026-05-06 21:17 | 39.11534 | -76.65586 | 19949 ft | 461 kts | 88° |
| 2026-05-06 21:18 | 39.11631 | -76.61440 | 20328 ft | 466 kts | 88° |
| 2026-05-06 21:18 | 39.11728 | -76.57242 | 20739 ft | 471 kts | 88° |
| 2026-05-06 21:18 | 39.11829 | -76.53008 | 21110 ft | 476 kts | 86° |
| 2026-05-06 21:18 | 39.12219 | -76.48762 | 21480 ft | 480 kts | 80° |
| 2026-05-06 21:19 | 39.12720 | -76.44491 | 21897 ft | 484 kts | 80° |
| 2026-05-06 21:19 | 39.13212 | -76.40190 | 22295 ft | 488 kts | 80° |
| 2026-05-06 21:19 | 39.13703 | -76.35837 | 22684 ft | 493 kts | 80° |
| 2026-05-06 21:19 | 39.14197 | -76.31438 | 23048 ft | 497 kts | 80° |
| 2026-05-06 21:20 | 39.14692 | -76.27017 | 23418 ft | 501 kts | 80° |
| 2026-05-06 21:20 | 39.15021 | -76.24068 | 23652 ft | 504 kts | 80° |
| 2026-05-06 21:20 | 39.15697 | -76.18071 | 24144 ft | 507 kts | 80° |
| 2026-05-06 21:20 | 39.16216 | -76.13574 | 24450 ft | 510 kts | 80° |
| 2026-05-06 21:21 | 39.16738 | -76.09057 | 24890 ft | 510 kts | 80° |
| 2026-05-06 21:21 | 39.17260 | -76.04519 | 25212 ft | 514 kts | 80° |
| 2026-05-06 21:21 | 39.17781 | -75.99956 | 25568 ft | 517 kts | 80° |
| 2026-05-06 21:21 | 39.18297 | -75.95414 | 25923 ft | 522 kts | 80° |
| 2026-05-06 21:22 | 39.19029 | -75.90863 | 26275 ft | 522 kts | 69° |
| 2026-05-06 21:22 | 39.20412 | -75.86562 | 26697 ft | 517 kts | 56° |
| 2026-05-06 21:22 | 39.22387 | -75.82732 | 27094 ft | 509 kts | 43° |
| 2026-05-06 21:22 | 39.24855 | -75.79528 | 27500 ft | 499 kts | 30° |
| 2026-05-06 21:23 | 39.27667 | -75.77001 | 27900 ft | 490 kts | 22° |
| 2026-05-06 21:23 | 39.30563 | -75.74645 | 28336 ft | 495 kts | 24° |
| 2026-05-06 21:23 | 39.33411 | -75.72095 | 28765 ft | 503 kts | 27° |
| 2026-05-06 21:23 | 39.36204 | -75.69320 | 29190 ft | 509 kts | 30° |
| 2026-05-06 21:24 | 39.38963 | -75.66399 | 29570 ft | 517 kts | 31° |
| 2026-05-06 21:24 | 39.41726 | -75.63383 | 29996 ft | 521 kts | 31° |
| 2026-05-06 21:24 | 39.44489 | -75.60332 | 30389 ft | 524 kts | 31° |
| 2026-05-06 21:24 | 39.47244 | -75.57285 | 30767 ft | 527 kts | 31° |
| 2026-05-06 21:25 | 39.50022 | -75.54213 | 31149 ft | 529 kts | 31° |
| 2026-05-06 21:25 | 39.52828 | -75.51112 | 31529 ft | 532 kts | 31° |
| 2026-05-06 21:25 | 39.55616 | -75.48032 | 31897 ft | 535 kts | 30° |
| 2026-05-06 21:25 | 39.58492 | -75.44852 | 32257 ft | 539 kts | 30° |
| 2026-05-06 21:26 | 39.61313 | -75.41730 | 32598 ft | 541 kts | 30° |
| 2026-05-06 21:26 | 39.64153 | -75.38582 | 33068 ft | 542 kts | 30° |
| 2026-05-06 21:26 | 39.67025 | -75.35394 | 33425 ft | 545 kts | 30° |
| 2026-05-06 21:26 | 39.69920 | -75.32180 | 33782 ft | 548 kts | 30° |
| 2026-05-06 21:27 | 39.72825 | -75.28950 | 34097 ft | 551 kts | 30° |
| 2026-05-06 21:27 | 39.74793 | -75.26759 | 34322 ft | 553 kts | 30° |
| 2026-05-06 21:27 | 39.77720 | -75.23488 | 34667 ft | 557 kts | 31° |
| 2026-05-06 21:27 | 39.80517 | -75.19905 | 34826 ft | 571 kts | 39° |
| 2026-05-06 21:28 | 39.83115 | -75.16005 | 34841 ft | 570 kts | 40° |
| 2026-05-06 21:28 | 39.88327 | -75.08240 | 34842 ft | 572 kts | 39° |
| 2026-05-06 21:29 | 39.93513 | -75.00524 | 34909 ft | 570 kts | 40° |
| 2026-05-06 21:29 | 39.98501 | -74.92388 | 34840 ft | 582 kts | 49° |
| 2026-05-06 21:30 | 40.02943 | -74.83615 | 34842 ft | 582 kts | 49° |
| 2026-05-06 21:30 | 40.07430 | -74.74820 | 34830 ft | 582 kts | 49° |
| 2026-05-06 21:31 | 40.11908 | -74.66007 | 34841 ft | 583 kts | 49° |
| 2026-05-06 21:31 | 40.16404 | -74.57133 | 35273 ft | 587 kts | 49° |
| 2026-05-06 21:31 | 40.18748 | -74.52809 | 35747 ft | 578 kts | 43° |
| 2026-05-06 21:32 | 40.21361 | -74.48873 | 36205 ft | 568 kts | 36° |
| 2026-05-06 21:32 | 40.27177 | -74.42139 | 37136 ft | 553 kts | 27° |
| 2026-05-06 21:32 | 40.30160 | -74.38961 | 37646 ft | 553 kts | 27° |
| 2026-05-06 21:33 | 40.33132 | -74.35770 | 38061 ft | 552 kts | 27° |
| 2026-05-06 21:33 | 40.36090 | -74.32587 | 38557 ft | 549 kts | 28° |
| 2026-05-06 21:33 | 40.39052 | -74.29404 | 38768 ft | 552 kts | 28° |
| 2026-05-06 21:33 | 40.41975 | -74.26263 | 38827 ft | 548 kts | 28° |
| 2026-05-06 21:34 | 40.47834 | -74.19954 | 38874 ft | 546 kts | 28° |
| 2026-05-06 21:34 | 40.53669 | -74.13670 | 38821 ft | 546 kts | 28° |
| 2026-05-06 21:35 | 40.59536 | -74.07330 | 38813 ft | 546 kts | 28° |
| 2026-05-06 21:35 | 40.65397 | -74.00981 | 38831 ft | 546 kts | 28° |
| 2026-05-06 21:36 | 40.71263 | -73.94614 | 38836 ft | 546 kts | 28° |
| 2026-05-06 21:36 | 40.77129 | -73.88229 | 38812 ft | 547 kts | 28° |
| 2026-05-06 21:37 | 40.82993 | -73.81794 | 38812 ft | 549 kts | 31° |
| 2026-05-06 21:37 | 40.85753 | -73.78248 | 38833 ft | 560 kts | 38° |
| 2026-05-06 21:37 | 40.88267 | -73.74353 | 38827 ft | 568 kts | 44° |
| 2026-05-06 21:38 | 40.92881 | -73.65729 | 38820 ft | 571 kts | 46° |
| 2026-05-06 21:38 | 40.97454 | -73.57156 | 38812 ft | 570 kts | 47° |
| 2026-05-06 21:39 | 41.01982 | -73.48618 | 38810 ft | 571 kts | 47° |
| 2026-05-06 21:39 | 41.06528 | -73.39997 | 38825 ft | 571 kts | 47° |
| 2026-05-06 21:40 | 41.11065 | -73.31363 | 38823 ft | 571 kts | 47° |
| 2026-05-06 21:40 | 41.15590 | -73.22731 | 38828 ft | 570 kts | 47° |
| 2026-05-06 21:41 | 41.20114 | -73.14077 | 38822 ft | 571 kts | 47° |
| 2026-05-06 21:41 | 41.24630 | -73.05414 | 38830 ft | 571 kts | 48° |
| 2026-05-06 21:42 | 41.29122 | -72.96701 | 38828 ft | 574 kts | 51° |
| 2026-05-06 21:42 | 41.33210 | -72.87571 | 38871 ft | 574 kts | 52° |
| 2026-05-06 21:43 | 41.37319 | -72.78445 | 38842 ft | 575 kts | 52° |
| 2026-05-06 21:43 | 41.41415 | -72.69302 | 38835 ft | 574 kts | 53° |
| 2026-05-06 21:44 | 41.45453 | -72.60244 | 38818 ft | 574 kts | 53° |
| 2026-05-06 21:44 | 41.49205 | -72.51801 | 38841 ft | 572 kts | 53° |
| 2026-05-06 21:45 | 41.52792 | -72.43709 | 38829 ft | 572 kts | 53° |
| 2026-05-06 21:45 | 41.56833 | -72.34567 | 38827 ft | 571 kts | 53° |
| 2026-05-06 21:46 | 41.60865 | -72.25416 | 38807 ft | 571 kts | 53° |
| 2026-05-06 21:46 | 41.64884 | -72.16269 | 38830 ft | 571 kts | 53° |
| 2026-05-06 21:47 | 41.68893 | -72.07114 | 38829 ft | 571 kts | 53° |
| 2026-05-06 21:47 | 41.72900 | -71.97938 | 38830 ft | 571 kts | 53° |
| 2026-05-06 21:48 | 41.76871 | -71.88816 | 38819 ft | 570 kts | 53° |
| 2026-05-06 21:48 | 41.81472 | -71.80362 | 38849 ft | 555 kts | 39° |
| 2026-05-06 21:49 | 41.87093 | -71.73499 | 38848 ft | 539 kts | 27° |
| 2026-05-06 21:49 | 41.93039 | -71.67364 | 38845 ft | 540 kts | 28° |
| 2026-05-06 21:50 | 41.98982 | -71.61169 | 38832 ft | 541 kts | 29° |
| 2026-05-06 21:50 | 42.04706 | -71.55198 | 38813 ft | 542 kts | 28° |
| 2026-05-06 21:51 | 42.10725 | -71.48911 | 38853 ft | 542 kts | 28° |
| 2026-05-06 21:51 | 42.16682 | -71.42678 | 38840 ft | 543 kts | 29° |
| 2026-05-06 21:52 | 42.22646 | -71.36420 | 38822 ft | 543 kts | 29° |
| 2026-05-06 21:52 | 42.28584 | -71.30174 | 38864 ft | 543 kts | 30° |
| 2026-05-06 21:53 | 42.34476 | -71.23962 | 38840 ft | 544 kts | 30° |
| 2026-05-06 21:53 | 42.40441 | -71.17655 | 38834 ft | 544 kts | 30° |
| 2026-05-06 21:54 | 42.46397 | -71.11344 | 38836 ft | 544 kts | 30° |
| 2026-05-06 21:54 | 42.52349 | -71.05022 | 38826 ft | 543 kts | 30° |
| 2026-05-06 21:55 | 42.58294 | -70.98691 | 38825 ft | 543 kts | 30° |
| 2026-05-06 21:55 | 42.64172 | -70.92342 | 38822 ft | 547 kts | 34° |
| 2026-05-06 21:56 | 42.69490 | -70.84830 | 38827 ft | 556 kts | 46° |
| 2026-05-06 21:56 | 42.73915 | -70.76127 | 38818 ft | 561 kts | 53° |
| 2026-05-06 21:57 | 42.78162 | -70.67227 | 38827 ft | 561 kts | 53° |
| 2026-05-06 21:57 | 42.82407 | -70.58307 | 38808 ft | 561 kts | 53° |
| 2026-05-06 21:58 | 42.86625 | -70.49372 | 38804 ft | 560 kts | 53° |
| 2026-05-06 21:58 | 42.90833 | -70.40422 | 38854 ft | 561 kts | 53° |
| 2026-05-06 21:59 | 42.95039 | -70.31450 | 38825 ft | 561 kts | 54° |
| 2026-05-06 21:59 | 42.99231 | -70.22478 | 38814 ft | 560 kts | 54° |
| 2026-05-06 22:00 | 43.03410 | -70.13505 | 38800 ft | 560 kts | 53° |
| 2026-05-06 22:00 | 43.07591 | -70.04506 | 38813 ft | 561 kts | 53° |
| 2026-05-06 22:01 | 43.11741 | -69.95544 | 38820 ft | 562 kts | 54° |
| 2026-05-06 22:01 | 43.15919 | -69.86493 | 38839 ft | 562 kts | 54° |
| 2026-05-06 22:02 | 43.20115 | -69.77377 | 38863 ft | 562 kts | 54° |
| 2026-05-06 22:02 | 43.24279 | -69.68300 | 38860 ft | 562 kts | 54° |
| 2026-05-06 22:03 | 43.28407 | -69.59273 | 38858 ft | 562 kts | 54° |
| 2026-05-06 22:03 | 43.32547 | -69.50193 | 38870 ft | 561 kts | 54° |
| 2026-05-06 22:04 | 43.36678 | -69.41106 | 38862 ft | 560 kts | 54° |
| 2026-05-06 22:04 | 43.40797 | -69.32016 | 38850 ft | 560 kts | 54° |
| 2026-05-06 22:05 | 43.44892 | -69.22949 | 38873 ft | 557 kts | 54° |
| 2026-05-06 22:05 | 43.48958 | -69.13925 | 38869 ft | 556 kts | 55° |
| 2026-05-06 22:06 | 43.53020 | -69.04874 | 38859 ft | 555 kts | 55° |
| 2026-05-06 22:06 | 43.57054 | -68.95861 | 38849 ft | 554 kts | 55° |
| 2026-05-06 22:07 | 43.61093 | -68.86810 | 38857 ft | 554 kts | 56° |
| 2026-05-06 22:07 | 43.65119 | -68.77759 | 38860 ft | 553 kts | 56° |
| 2026-05-06 22:08 | 43.69133 | -68.68706 | 38876 ft | 551 kts | 56° |
| 2026-05-06 22:08 | 43.73114 | -68.59699 | 38901 ft | 551 kts | 56° |
| 2026-05-06 22:09 | 43.77099 | -68.50656 | 38882 ft | 551 kts | 57° |
| 2026-05-06 22:09 | 43.81077 | -68.41600 | 38877 ft | 550 kts | 57° |
| 2026-05-06 22:10 | 43.85041 | -68.32548 | 38885 ft | 550 kts | 57° |
| 2026-05-06 22:10 | 43.89008 | -68.23463 | 38884 ft | 550 kts | 57° |
| 2026-05-06 22:11 | 43.92960 | -68.14381 | 38881 ft | 550 kts | 57° |
| 2026-05-06 22:11 | 43.96900 | -68.05298 | 38901 ft | 549 kts | 58° |
| 2026-05-06 22:12 | 44.00827 | -67.96216 | 38913 ft | 549 kts | 58° |
| 2026-05-06 22:12 | 44.04092 | -67.88646 | 38901 ft | 549 kts | 58° |
| 2026-05-06 22:13 | 44.07930 | -67.79717 | 38908 ft | 549 kts | 58° |
| 2026-05-06 22:13 | 44.11839 | -67.70596 | 38906 ft | 549 kts | 58° |
| 2026-05-06 22:14 | 44.15741 | -67.61466 | 38910 ft | 549 kts | 59° |
| 2026-05-06 22:14 | 44.19638 | -67.52314 | 38898 ft | 549 kts | 59° |
| 2026-05-06 22:15 | 44.23498 | -67.43219 | 38910 ft | 549 kts | 58° |
| 2026-05-06 22:15 | 44.27381 | -67.34044 | 38943 ft | 549 kts | 59° |
| 2026-05-06 22:16 | 44.31262 | -67.24844 | 38919 ft | 550 kts | 59° |
| 2026-05-06 22:16 | 44.35137 | -67.15627 | 38921 ft | 551 kts | 59° |
| 2026-05-06 22:17 | 44.39015 | -67.06384 | 38937 ft | 551 kts | 59° |
| 2026-05-06 22:17 | 44.43234 | -66.97475 | 38936 ft | 549 kts | 48° |
| 2026-05-06 22:18 | 44.48234 | -66.89415 | 38936 ft | 548 kts | 47° |
| 2026-05-06 22:18 | 44.53221 | -66.81327 | 38931 ft | 548 kts | 47° |
| 2026-05-06 22:19 | 44.58206 | -66.73262 | 38974 ft | 546 kts | 46° |
| 2026-05-06 22:19 | 44.63166 | -66.65230 | 38967 ft | 545 kts | 46° |
| 2026-05-06 22:20 | 44.68079 | -66.57251 | 38962 ft | 544 kts | 46° |
| 2026-05-06 22:20 | 44.73019 | -66.49204 | 38951 ft | 543 kts | 46° |
| 2026-05-06 22:21 | 44.77943 | -66.41162 | 38945 ft | 542 kts | 46° |
| 2026-05-06 22:21 | 44.82855 | -66.33115 | 38943 ft | 541 kts | 46° |
| 2026-05-06 22:22 | 44.87753 | -66.25058 | 38950 ft | 541 kts | 46° |
| 2026-05-06 22:22 | 44.92640 | -66.16991 | 38946 ft | 541 kts | 47° |
| 2026-05-06 22:23 | 44.97525 | -66.08904 | 38944 ft | 541 kts | 47° |
| 2026-05-06 22:23 | 45.02403 | -66.00806 | 38958 ft | 541 kts | 47° |
| 2026-05-06 22:24 | 45.07275 | -65.92696 | 38962 ft | 541 kts | 47° |
| 2026-05-06 22:24 | 45.12134 | -65.84580 | 38962 ft | 540 kts | 47° |
| 2026-05-06 22:25 | 45.16906 | -65.76589 | 38948 ft | 540 kts | 48° |
| 2026-05-06 22:25 | 45.21751 | -65.68454 | 38945 ft | 540 kts | 48° |
| 2026-05-06 22:26 | 45.26586 | -65.60309 | 38958 ft | 539 kts | 48° |
| 2026-05-06 22:26 | 45.31411 | -65.52157 | 38958 ft | 539 kts | 49° |
| 2026-05-06 22:27 | 45.36228 | -65.43999 | 38961 ft | 539 kts | 49° |
| 2026-05-06 22:27 | 45.41042 | -65.35820 | 38971 ft | 539 kts | 49° |
| 2026-05-06 22:28 | 45.45852 | -65.27621 | 38963 ft | 539 kts | 49° |
| 2026-05-06 22:28 | 45.50662 | -65.19401 | 38939 ft | 541 kts | 49° |
| 2026-05-06 22:29 | 45.55456 | -65.11185 | 38945 ft | 543 kts | 49° |
| 2026-05-06 22:29 | 45.60283 | -65.02886 | 38929 ft | 544 kts | 49° |
| 2026-05-06 22:30 | 45.65108 | -64.94565 | 38987 ft | 543 kts | 48° |
| 2026-05-06 22:30 | 45.69918 | -64.86247 | 38976 ft | 542 kts | 48° |
| 2026-05-06 22:31 | 45.74716 | -64.77926 | 38957 ft | 541 kts | 49° |
| 2026-05-06 22:31 | 45.79499 | -64.69606 | 38939 ft | 541 kts | 49° |
| 2026-05-06 22:32 | 45.84246 | -64.61323 | 38926 ft | 540 kts | 49° |
| 2026-05-06 22:32 | 45.89010 | -64.52985 | 38923 ft | 540 kts | 49° |
| 2026-05-06 22:33 | 45.93764 | -64.44640 | 38914 ft | 540 kts | 49° |
| 2026-05-06 22:33 | 45.98510 | -64.36285 | 38917 ft | 540 kts | 49° |
| 2026-05-06 22:34 | 46.03253 | -64.27909 | 38918 ft | 540 kts | 49° |
| 2026-05-06 22:34 | 46.07991 | -64.19518 | 38927 ft | 540 kts | 49° |
| 2026-05-06 22:35 | 46.12739 | -64.11086 | 38894 ft | 543 kts | 50° |
| 2026-05-06 22:35 | 46.17482 | -64.02633 | 38921 ft | 544 kts | 50° |
| 2026-05-06 22:36 | 46.22244 | -63.94120 | 38938 ft | 546 kts | 50° |
| 2026-05-06 22:36 | 46.27013 | -63.85569 | 38955 ft | 547 kts | 50° |
| 2026-05-06 22:37 | 46.31752 | -63.77048 | 38964 ft | 548 kts | 50° |
| 2026-05-06 22:37 | 46.36561 | -63.68372 | 38962 ft | 549 kts | 50° |
| 2026-05-06 22:38 | 46.41330 | -63.59742 | 38963 ft | 549 kts | 50° |
| 2026-05-06 22:38 | 46.46098 | -63.51088 | 38962 ft | 549 kts | 50° |
| 2026-05-06 22:39 | 46.50851 | -63.42433 | 38967 ft | 548 kts | 50° |
| 2026-05-06 22:39 | 46.55595 | -63.33767 | 38971 ft | 548 kts | 50° |
| 2026-05-06 22:40 | 46.60327 | -63.25097 | 38959 ft | 547 kts | 50° |
| 2026-05-06 22:40 | 46.65018 | -63.16476 | 38948 ft | 547 kts | 50° |
| 2026-05-06 22:41 | 46.72055 | -63.03487 | 38955 ft | 545 kts | 50° |
| 2026-05-06 22:42 | 46.76743 | -62.94803 | 38943 ft | 545 kts | 50° |
| 2026-05-06 22:42 | 46.81422 | -62.86110 | 38940 ft | 545 kts | 50° |
| 2026-05-06 22:43 | 46.86092 | -62.77406 | 38954 ft | 544 kts | 50° |
| 2026-05-06 22:43 | 46.90761 | -62.68674 | 38935 ft | 545 kts | 50° |
| 2026-05-06 22:44 | 46.95427 | -62.59921 | 38947 ft | 546 kts | 50° |
| 2026-05-06 22:44 | 47.00090 | -62.51145 | 38948 ft | 546 kts | 50° |
| 2026-05-06 22:45 | 47.04746 | -62.42354 | 38958 ft | 546 kts | 50° |
| 2026-05-06 22:45 | 47.09383 | -62.33572 | 38955 ft | 546 kts | 50° |
| 2026-05-06 22:46 | 47.14009 | -62.24783 | 38962 ft | 547 kts | 50° |
| 2026-05-06 22:46 | 47.18635 | -62.15964 | 38961 ft | 547 kts | 50° |
| 2026-05-06 22:47 | 47.23275 | -62.07093 | 38960 ft | 547 kts | 50° |
| 2026-05-06 22:47 | 47.27900 | -61.98216 | 38980 ft | 545 kts | 50° |
| 2026-05-06 22:48 | 47.32504 | -61.89356 | 38977 ft | 544 kts | 50° |
| 2026-05-06 22:48 | 47.37092 | -61.80499 | 38954 ft | 543 kts | 50° |
| 2026-05-06 22:49 | 47.41663 | -61.71644 | 38941 ft | 542 kts | 50° |
| 2026-05-06 22:49 | 47.46224 | -61.62779 | 38938 ft | 541 kts | 50° |
| 2026-05-06 22:50 | 47.50772 | -61.53914 | 38940 ft | 541 kts | 51° |
| 2026-05-06 22:50 | 47.55312 | -61.45033 | 38946 ft | 541 kts | 51° |
| 2026-05-06 22:51 | 47.59847 | -61.36133 | 38965 ft | 541 kts | 51° |
| 2026-05-06 22:51 | 47.64380 | -61.27210 | 38969 ft | 543 kts | 51° |
| 2026-05-06 22:52 | 47.68913 | -61.18257 | 38968 ft | 543 kts | 51° |
| 2026-05-06 22:52 | 47.73451 | -61.09265 | 38975 ft | 544 kts | 51° |
| 2026-05-06 22:53 | 47.77955 | -61.00309 | 38980 ft | 545 kts | 51° |
| 2026-05-06 22:53 | 47.82482 | -60.91273 | 39003 ft | 544 kts | 50° |
| 2026-05-06 22:54 | 47.86997 | -60.82240 | 39004 ft | 543 kts | 50° |
| 2026-05-06 22:54 | 47.91498 | -60.73202 | 38989 ft | 543 kts | 50° |
| 2026-05-06 22:55 | 47.95987 | -60.64160 | 38989 ft | 542 kts | 50° |
| 2026-05-06 22:55 | 48.00465 | -60.55107 | 38983 ft | 542 kts | 51° |
| 2026-05-06 22:56 | 48.04930 | -60.46052 | 38985 ft | 541 kts | 51° |
| 2026-05-06 22:56 | 48.09386 | -60.36985 | 38985 ft | 541 kts | 51° |
| 2026-05-06 22:57 | 48.13831 | -60.27909 | 38994 ft | 540 kts | 51° |
| 2026-05-06 22:57 | 48.18269 | -60.18819 | 38994 ft | 540 kts | 51° |
| 2026-05-06 22:58 | 48.22697 | -60.09718 | 38993 ft | 540 kts | 51° |
| 2026-05-06 22:58 | 48.27120 | -60.00595 | 39023 ft | 540 kts | 51° |
| 2026-05-06 22:59 | 48.31499 | -59.91534 | 39016 ft | 540 kts | 51° |
| 2026-05-06 22:59 | 48.35892 | -59.82412 | 39044 ft | 537 kts | 51° |
| 2026-05-06 23:00 | 48.40263 | -59.73307 | 39022 ft | 536 kts | 51° |
| 2026-05-06 23:00 | 48.44568 | -59.64310 | 39023 ft | 535 kts | 51° |
| 2026-05-06 23:01 | 48.48904 | -59.55217 | 39019 ft | 533 kts | 51° |
| 2026-05-06 23:01 | 48.52491 | -59.47671 | 39013 ft | 532 kts | 51° |
| 2026-05-06 23:02 | 48.56759 | -59.38664 | 39005 ft | 531 kts | 51° |
| 2026-05-06 23:02 | 48.61051 | -59.29579 | 39004 ft | 531 kts | 51° |
| 2026-05-06 23:03 | 48.65330 | -59.20490 | 38999 ft | 531 kts | 51° |
| 2026-05-06 23:03 | 48.69601 | -59.11385 | 39007 ft | 531 kts | 51° |
| 2026-05-06 23:04 | 48.73851 | -59.02298 | 39008 ft | 531 kts | 51° |
| 2026-05-06 23:04 | 48.78116 | -58.93146 | 39016 ft | 532 kts | 52° |
| 2026-05-06 23:05 | 48.82356 | -58.84015 | 39016 ft | 532 kts | 52° |
| 2026-05-06 23:05 | 48.86613 | -58.74818 | 39028 ft | 533 kts | 52° |
| 2026-05-06 23:06 | 48.90862 | -58.65606 | 39064 ft | 530 kts | 52° |
| 2026-05-06 23:06 | 48.95080 | -58.56430 | 39056 ft | 529 kts | 52° |
| 2026-05-06 23:07 | 48.99280 | -58.47261 | 39044 ft | 527 kts | 52° |
| 2026-05-06 23:07 | 49.03464 | -58.38097 | 39033 ft | 526 kts | 52° |
| 2026-05-06 23:08 | 49.07634 | -58.28935 | 39021 ft | 525 kts | 52° |
| 2026-05-06 23:08 | 49.11785 | -58.19779 | 39029 ft | 524 kts | 52° |
| 2026-05-06 23:09 | 49.15927 | -58.10615 | 39023 ft | 524 kts | 52° |
| 2026-05-06 23:09 | 49.20046 | -58.01469 | 39022 ft | 524 kts | 52° |
| 2026-05-06 23:10 | 49.24156 | -57.92313 | 39021 ft | 524 kts | 52° |
| 2026-05-06 23:10 | 49.28278 | -57.83098 | 39026 ft | 525 kts | 52° |
| 2026-05-06 23:11 | 49.32370 | -57.73917 | 39032 ft | 525 kts | 52° |
| 2026-05-06 23:11 | 49.36482 | -57.64659 | 39049 ft | 525 kts | 53° |
| 2026-05-06 23:12 | 49.40585 | -57.55392 | 39045 ft | 525 kts | 53° |
| 2026-05-06 23:12 | 49.44679 | -57.46113 | 39062 ft | 524 kts | 53° |
| 2026-05-06 23:13 | 49.48751 | -57.36849 | 39064 ft | 522 kts | 53° |
| 2026-05-06 23:13 | 49.52787 | -57.27635 | 39066 ft | 520 kts | 53° |
| 2026-05-06 23:14 | 49.56819 | -57.18398 | 39052 ft | 519 kts | 53° |
| 2026-05-06 23:14 | 49.60833 | -57.09171 | 39046 ft | 518 kts | 53° |
| 2026-05-06 23:15 | 49.64822 | -56.99972 | 39041 ft | 517 kts | 53° |
| 2026-05-06 23:15 | 49.68809 | -56.90742 | 39034 ft | 516 kts | 53° |
| 2026-05-06 23:16 | 49.72782 | -56.81515 | 39024 ft | 515 kts | 53° |
| 2026-05-06 23:16 | 49.76743 | -56.72284 | 39022 ft | 515 kts | 53° |
| 2026-05-06 23:17 | 49.80692 | -56.63047 | 39016 ft | 515 kts | 54° |
| 2026-05-06 23:17 | 49.84642 | -56.53777 | 39020 ft | 516 kts | 54° |
| 2026-05-06 23:18 | 49.88587 | -56.44484 | 39026 ft | 516 kts | 54° |
| 2026-05-06 23:18 | 49.92530 | -56.35164 | 39027 ft | 517 kts | 54° |
| 2026-05-06 23:19 | 49.96477 | -56.25804 | 39036 ft | 518 kts | 54° |
| 2026-05-06 23:19 | 50.00414 | -56.16430 | 39066 ft | 518 kts | 54° |
| 2026-05-06 23:20 | 50.04341 | -56.07049 | 39060 ft | 517 kts | 54° |
| 2026-05-06 23:20 | 50.08211 | -55.97771 | 39055 ft | 516 kts | 54° |
| 2026-05-06 23:21 | 50.12109 | -55.88394 | 39053 ft | 515 kts | 54° |
| 2026-05-06 23:21 | 50.15993 | -55.79016 | 39045 ft | 514 kts | 54° |
| 2026-05-06 23:22 | 50.19864 | -55.69634 | 39038 ft | 514 kts | 54° |
| 2026-05-06 23:22 | 50.23723 | -55.60249 | 39049 ft | 513 kts | 54° |
| 2026-05-06 23:23 | 50.27575 | -55.50851 | 39038 ft | 514 kts | 55° |
| 2026-05-06 23:23 | 50.31422 | -55.41428 | 39038 ft | 514 kts | 55° |
| 2026-05-06 23:24 | 50.35261 | -55.31990 | 39040 ft | 514 kts | 55° |
| 2026-05-06 23:24 | 50.39094 | -55.22535 | 39056 ft | 514 kts | 55° |
| 2026-05-06 23:25 | 50.42925 | -55.13048 | 39056 ft | 515 kts | 55° |
| 2026-05-06 23:25 | 50.46750 | -55.03542 | 39061 ft | 515 kts | 55° |
| 2026-05-06 23:26 | 50.50556 | -54.94051 | 39062 ft | 515 kts | 55° |
| 2026-05-06 23:26 | 50.54341 | -54.84574 | 39062 ft | 515 kts | 55° |
| 2026-05-06 23:27 | 50.58170 | -54.74954 | 39064 ft | 515 kts | 56° |
| 2026-05-06 23:27 | 50.61965 | -54.65384 | 39069 ft | 515 kts | 56° |
| 2026-05-06 23:28 | 50.65725 | -54.55868 | 39067 ft | 515 kts | 56° |
| 2026-05-06 23:28 | 50.69506 | -54.46264 | 39075 ft | 515 kts | 56° |
| 2026-05-06 23:29 | 50.73276 | -54.36652 | 39072 ft | 515 kts | 56° |
| 2026-05-06 23:29 | 50.77039 | -54.27022 | 39069 ft | 515 kts | 56° |
| 2026-05-06 23:30 | 50.80793 | -54.17377 | 39068 ft | 515 kts | 56° |
| 2026-05-06 23:30 | 50.84536 | -54.07729 | 39064 ft | 515 kts | 56° |
| 2026-05-06 23:31 | 50.88276 | -53.98048 | 39059 ft | 516 kts | 56° |
| 2026-05-06 23:31 | 50.91993 | -53.88405 | 39075 ft | 516 kts | 56° |
| 2026-05-06 23:32 | 50.95729 | -53.78689 | 39077 ft | 516 kts | 56° |
| 2026-05-06 23:32 | 50.99462 | -53.68949 | 39061 ft | 517 kts | 56° |
| 2026-05-06 23:33 | 51.03165 | -53.59250 | 39084 ft | 517 kts | 56° |
| 2026-05-06 23:33 | 51.06883 | -53.49472 | 39092 ft | 517 kts | 56° |
| 2026-05-06 23:34 | 51.10598 | -53.39667 | 39090 ft | 517 kts | 56° |
| 2026-05-06 23:34 | 51.14282 | -53.29836 | 39068 ft | 518 kts | 59° |
| 2026-05-06 23:35 | 51.17611 | -53.19657 | 39080 ft | 519 kts | 62° |
| 2026-05-06 23:35 | 51.20508 | -53.09163 | 39080 ft | 519 kts | 65° |
| 2026-05-06 23:36 | 51.23434 | -52.98632 | 39082 ft | 519 kts | 64° |
| 2026-05-06 23:36 | 51.26327 | -52.88145 | 39088 ft | 520 kts | 65° |
| 2026-05-06 23:37 | 51.29212 | -52.77544 | 39089 ft | 520 kts | 65° |
| 2026-05-06 23:37 | 51.32083 | -52.66924 | 39095 ft | 521 kts | 65° |
| 2026-05-06 23:38 | 51.34946 | -52.56285 | 39097 ft | 521 kts | 65° |
| 2026-05-06 23:38 | 51.37800 | -52.45630 | 39103 ft | 520 kts | 65° |
| 2026-05-06 23:39 | 51.40639 | -52.34984 | 39114 ft | 520 kts | 65° |
| 2026-05-06 23:39 | 51.43467 | -52.24330 | 39114 ft | 519 kts | 65° |
| 2026-05-06 23:40 | 51.46280 | -52.13685 | 39113 ft | 518 kts | 65° |
| 2026-05-06 23:40 | 51.49079 | -52.03042 | 39096 ft | 518 kts | 65° |
| 2026-05-06 23:41 | 51.51868 | -51.92387 | 39091 ft | 518 kts | 65° |
| 2026-05-06 23:41 | 51.54646 | -51.81722 | 39096 ft | 518 kts | 65° |
| 2026-05-06 23:42 | 51.57416 | -51.71040 | 39100 ft | 518 kts | 65° |
| 2026-05-06 23:42 | 51.60179 | -51.60336 | 39100 ft | 518 kts | 65° |
| 2026-05-06 23:43 | 51.62897 | -51.49753 | 39109 ft | 519 kts | 65° |
| 2026-05-06 23:43 | 51.65645 | -51.39001 | 39127 ft | 519 kts | 65° |
| 2026-05-06 23:44 | 51.68400 | -51.28176 | 39126 ft | 519 kts | 65° |
| 2026-05-06 23:44 | 51.71107 | -51.17485 | 39127 ft | 518 kts | 65° |
| 2026-05-06 23:45 | 51.73820 | -51.06719 | 39120 ft | 518 kts | 65° |
| 2026-05-06 23:45 | 51.76522 | -50.95942 | 39115 ft | 518 kts | 65° |
| 2026-05-06 23:46 | 51.79217 | -50.85146 | 39117 ft | 518 kts | 65° |
| 2026-05-06 23:46 | 51.81900 | -50.74342 | 39116 ft | 518 kts | 65° |
| 2026-05-06 23:47 | 51.84572 | -50.63529 | 39113 ft | 518 kts | 65° |
| 2026-05-06 23:47 | 51.87236 | -50.52697 | 39116 ft | 518 kts | 65° |
| 2026-05-06 23:48 | 51.89891 | -50.41849 | 39117 ft | 518 kts | 65° |
| 2026-05-06 23:48 | 51.92533 | -50.30996 | 39138 ft | 517 kts | 65° |
| 2026-05-06 23:49 | 51.95143 | -50.20227 | 39128 ft | 516 kts | 65° |
| 2026-05-06 23:49 | 51.97757 | -50.09385 | 39121 ft | 516 kts | 65° |
| 2026-05-06 23:50 | 52.00176 | -49.98431 | 39116 ft | 517 kts | 71° |
| 2026-05-06 23:50 | 52.02384 | -49.83189 | 39114 ft | 518 kts | 74° |
| 2026-05-06 23:51 | 52.04018 | -49.71872 | 39114 ft | 519 kts | 74° |
| 2026-05-06 23:51 | 52.05657 | -49.60457 | 39118 ft | 519 kts | 74° |
| 2026-05-06 23:52 | 52.07281 | -49.49024 | 39128 ft | 519 kts | 74° |
| 2026-05-06 23:52 | 52.08891 | -49.37576 | 39154 ft | 518 kts | 74° |
| 2026-05-06 23:53 | 52.10479 | -49.26156 | 39148 ft | 517 kts | 74° |
| 2026-05-06 23:53 | 52.12051 | -49.14744 | 39136 ft | 516 kts | 75° |
| 2026-05-06 23:54 | 52.13611 | -49.03338 | 39133 ft | 515 kts | 75° |
| 2026-05-06 23:54 | 52.15156 | -48.91952 | 39131 ft | 515 kts | 75° |
| 2026-05-06 23:55 | 52.16689 | -48.80567 | 39129 ft | 514 kts | 75° |
| 2026-05-06 23:55 | 52.18210 | -48.69183 | 39130 ft | 514 kts | 75° |
| 2026-05-06 23:56 | 52.19719 | -48.57796 | 39130 ft | 514 kts | 75° |
| 2026-05-06 23:56 | 52.21215 | -48.46418 | 39144 ft | 512 kts | 75° |
| 2026-05-06 23:57 | 52.22695 | -48.35065 | 39145 ft | 511 kts | 75° |
| 2026-05-06 23:57 | 52.24163 | -48.23726 | 39141 ft | 510 kts | 75° |
| 2026-05-06 23:58 | 52.25606 | -48.12479 | 39139 ft | 509 kts | 75° |
| 2026-05-06 23:58 | 52.27047 | -48.01164 | 39135 ft | 509 kts | 75° |
| 2026-05-06 23:59 | 52.28476 | -47.89845 | 39133 ft | 509 kts | 75° |
| 2026-05-06 23:59 | 52.29894 | -47.78522 | 39139 ft | 509 kts | 75° |
| 2026-05-07 00:00 | 52.31301 | -47.67190 | 39147 ft | 509 kts | 75° |
| 2026-05-07 00:00 | 52.32696 | -47.55865 | 39156 ft | 508 kts | 75° |
| 2026-05-07 00:01 | 52.34081 | -47.44529 | 39153 ft | 508 kts | 76° |
| 2026-05-07 00:01 | 52.35453 | -47.33195 | 39154 ft | 508 kts | 76° |
| 2026-05-07 00:02 | 52.36815 | -47.21851 | 39156 ft | 508 kts | 76° |
| 2026-05-07 00:02 | 52.38168 | -47.10492 | 39154 ft | 508 kts | 76° |